Time;durP1;ratioP1;P1;durP2;ratioP2;P2;SDS_P1;SDS_P2;PMS_P1;PMS_P2;Temp;Humidity;BMP_temperature;BMP_pressure;BME280_temperature;BME280_humidity;BME280_pressure;Samples;Min_cycle;Max_cycle;Signal;HPM_P1;HPM_P2
2021/07/22 00:02:14;;;;;;;17.77;9.38;;;;;;;19.15;61.56;97037.34;5007309;28;20049;-65
2021/07/22 00:04:41;;;;;;;18.02;9.30;;;;;;;19.18;61.19;97039.31;5036148;28;20084;-64
2021/07/22 00:07:06;;;;;;;15.32;8.57;;;;;;;19.10;61.76;97041.38;5022469;28;20393;-62
2021/07/22 00:09:32;;;;;;;19.90;9.07;;;;;;;19.06;61.75;97040.63;5021551;28;20124;-61
2021/07/22 00:11:57;;;;;;;16.08;9.18;;;;;;;19.04;61.91;97042.25;5021899;28;20049;-63
2021/07/22 00:14:23;;;;;;;15.77;9.38;;;;;;;18.96;62.33;97040.75;5005363;28;20905;-63
2021/07/22 00:16:48;;;;;;;18.25;8.75;;;;;;;18.91;62.35;97042.00;5043455;23;20049;-63
2021/07/22 00:19:14;;;;;;;15.70;8.60;;;;;;;18.82;62.78;97036.94;5026775;28;20511;-63
2021/07/22 00:21:39;;;;;;;18.83;9.52;;;;;;;18.71;63.57;97037.03;5023680;28;20448;-64
2021/07/22 00:24:05;;;;;;;18.83;9.68;;;;;;;18.64;64.03;97036.31;5035726;28;20120;-62
2021/07/22 00:26:31;;;;;;;15.63;8.85;;;;;;;18.56;64.09;97037.56;5032333;28;20378;-64
2021/07/22 00:28:57;;;;;;;17.95;10.20;;;;;;;18.54;64.16;97040.75;5041698;28;20043;-64
2021/07/22 00:31:23;;;;;;;19.67;9.65;;;;;;;18.47;64.60;97043.59;5035511;28;20049;-63
2021/07/22 00:33:49;;;;;;;19.98;9.93;;;;;;;18.44;64.65;97041.63;5040738;28;20036;-62
2021/07/22 00:36:14;;;;;;;20.83;9.25;;;;;;;18.38;64.89;97040.53;5032165;28;20048;-64
2021/07/22 00:38:40;;;;;;;18.80;10.32;;;;;;;18.34;65.17;97040.56;5044045;28;20076;-63
2021/07/22 00:41:10;;;;;;;16.90;9.45;;;;;;;18.34;65.24;97041.31;5027782;28;20128;-63
2021/07/22 00:43:36;;;;;;;16.33;9.00;;;;;;;18.33;65.01;97033.44;5040418;28;20044;-64
2021/07/22 00:46:01;;;;;;;17.20;9.25;;;;;;;18.23;65.47;97045.41;5039989;28;20037;-65
2021/07/22 00:48:27;;;;;;;18.15;9.05;;;;;;;18.19;65.63;97042.66;5040591;28;20052;-64
2021/07/22 00:50:52;;;;;;;16.27;9.20;;;;;;;18.15;66.02;97037.16;5048824;28;20041;-64
2021/07/22 00:53:17;;;;;;;17.05;9.60;;;;;;;18.07;66.29;97034.84;5021250;28;20132;-64
2021/07/22 00:55:44;;;;;;;16.48;9.40;;;;;;;18.05;66.52;97037.25;5032238;28;20474;-64
2021/07/22 00:58:10;;;;;;;19.40;9.35;;;;;;;18.00;66.59;97035.69;5035667;28;20045;-64
2021/07/22 01:00:35;;;;;;;18.73;10.15;;;;;;;17.93;66.78;97031.00;5024203;28;20060;-64
2021/07/22 01:03:00;;;;;;;16.50;9.15;;;;;;;17.95;66.65;97027.78;5029485;28;20195;-63
2021/07/22 01:05:26;;;;;;;16.98;8.85;;;;;;;17.90;67.14;97033.78;5026228;28;20182;-64
2021/07/22 01:07:51;;;;;;;18.60;9.43;;;;;;;17.83;67.66;97029.06;5038824;28;20132;-64
2021/07/22 01:10:17;;;;;;;15.93;8.20;;;;;;;17.78;68.43;97033.03;5027639;28;20053;-64
2021/07/22 01:12:42;;;;;;;17.13;9.57;;;;;;;17.69;70.61;97031.91;5040340;28;20424;-64
2021/07/22 01:15:08;;;;;;;15.70;9.55;;;;;;;17.39;72.91;97034.06;4998937;28;20570;-63
2021/07/22 01:17:46;;;;;;;24.05;10.77;;;;;;;17.20;73.88;97029.81;5000666;28;20606;-62
2021/07/22 01:20:18;;;;;;;15.68;8.65;;;;;;;17.08;74.85;97035.00;4992241;28;20049;-63
2021/07/22 01:22:45;;;;;;;20.35;10.02;;;;;;;17.01;75.78;97024.75;5005714;28;20042;-65
2021/07/22 01:25:12;;;;;;;16.65;8.95;;;;;;;16.94;76.14;97030.28;5000660;28;20037;-66
2021/07/22 01:27:37;;;;;;;19.02;9.35;;;;;;;16.98;76.85;97022.78;5000406;28;20490;-63
2021/07/22 01:30:04;;;;;;;19.80;8.98;;;;;;;16.99;76.80;97021.59;5010212;28;20041;-65
2021/07/22 01:32:29;;;;;;;18.17;9.57;;;;;;;16.84;77.84;97023.63;5013437;28;20041;-63
2021/07/22 01:34:55;;;;;;;17.17;10.07;;;;;;;16.79;78.61;97026.78;5003790;28;20041;-64
2021/07/22 01:37:20;;;;;;;16.15;9.57;;;;;;;16.69;79.25;97027.56;4998042;28;20076;-65
2021/07/22 01:39:45;;;;;;;18.35;9.35;;;;;;;16.62;79.36;97036.69;5019769;28;20505;-65
2021/07/22 01:42:11;;;;;;;16.58;9.65;;;;;;;16.66;79.51;97031.94;5011510;28;20064;-64
2021/07/22 01:44:36;;;;;;;17.73;9.73;;;;;;;16.62;79.46;97028.41;5017075;28;20029;-65
2021/07/22 01:47:05;;;;;;;20.30;9.82;;;;;;;16.54;80.17;97026.81;5020428;28;20044;-64
2021/07/22 01:49:31;;;;;;;19.63;10.02;;;;;;;16.47;80.09;97027.63;5018687;28;20059;-64
2021/07/22 01:52:00;;;;;;;16.27;9.75;;;;;;;16.39;80.77;97026.84;5017612;28;20038;-66
2021/07/22 01:54:26;;;;;;;17.10;9.93;;;;;;;16.47;80.64;97032.38;5030421;28;20056;-63
2021/07/22 01:56:51;;;;;;;22.73;10.57;;;;;;;16.48;80.40;97034.75;5028038;28;20056;-64
2021/07/22 01:59:17;;;;;;;18.85;10.23;;;;;;;16.10;82.10;97026.09;5014588;28;20056;-64
2021/07/22 02:01:42;;;;;;;19.08;10.40;;;;;;;15.89;82.88;97026.09;5013880;28;20073;-64
2021/07/22 02:04:08;;;;;;;17.60;10.70;;;;;;;15.84;83.19;97027.25;4991562;28;20053;-63
2021/07/22 02:06:33;;;;;;;18.35;9.90;;;;;;;15.79;83.37;97028.44;4998958;28;20050;-65
2021/07/22 02:08:58;;;;;;;15.13;9.25;;;;;;;15.89;84.35;97023.31;4999256;28;20042;-64
2021/07/22 02:11:24;;;;;;;21.08;9.57;;;;;;;15.82;83.50;97024.88;4993611;28;20441;-64
2021/07/22 02:13:50;;;;;;;18.65;9.88;;;;;;;15.85;83.96;97028.84;5006689;28;20041;-63
2021/07/22 02:16:15;;;;;;;22.38;9.90;;;;;;;15.91;84.27;97023.72;5013444;28;20065;-64
2021/07/22 02:18:41;;;;;;;18.38;10.10;;;;;;;16.01;83.67;97031.22;5020210;28;20125;-64
2021/07/22 02:21:08;;;;;;;19.50;9.50;;;;;;;16.08;83.02;97033.19;5017699;28;20041;-64
2021/07/22 02:23:34;;;;;;;18.95;10.38;;;;;;;16.02;82.70;97038.31;5020702;28;20114;-65
2021/07/22 02:26:03;;;;;;;21.70;11.05;;;;;;;15.90;82.82;97033.19;5023034;28;20045;-65
2021/07/22 02:28:29;;;;;;;17.60;10.30;;;;;;;15.81;83.34;97030.78;5020134;28;20064;-65
2021/07/22 02:30:54;;;;;;;17.48;10.02;;;;;;;15.62;84.53;97034.69;5032727;28;20516;-65
2021/07/22 02:33:20;;;;;;;18.05;9.93;;;;;;;15.54;85.46;97035.84;5015931;28;20049;-64
2021/07/22 02:35:45;;;;;;;19.77;10.27;;;;;;;15.38;86.05;97028.75;5023618;28;20049;-65
2021/07/22 02:38:11;;;;;;;19.40;9.60;;;;;;;15.42;86.39;97028.75;5016741;28;20042;-64
2021/07/22 02:40:36;;;;;;;20.98;10.48;;;;;;;15.35;86.45;97028.72;5021802;28;20114;-64
2021/07/22 02:43:02;;;;;;;21.85;10.27;;;;;;;15.36;86.91;97025.59;5025223;28;20495;-64
2021/07/22 02:45:27;;;;;;;19.35;10.70;;;;;;;15.52;87.00;97024.41;5022653;28;20050;-65
2021/07/22 02:47:53;;;;;;;20.58;10.35;;;;;;;15.61;86.74;97033.09;5029575;28;20390;-65
2021/07/22 02:50:18;;;;;;;19.67;10.95;;;;;;;15.65;85.67;97029.19;5017156;28;20037;-65
2021/07/22 02:52:43;;;;;;;19.30;10.27;;;;;;;15.54;85.53;97039.44;5033972;28;20053;-65
2021/07/22 02:55:10;;;;;;;20.95;11.35;;;;;;;15.54;86.14;97036.66;5032234;28;20501;-65
2021/07/22 02:57:35;;;;;;;22.50;10.73;;;;;;;15.58;86.49;97034.69;5024479;28;20041;-65
2021/07/22 03:00:01;;;;;;;20.25;10.75;;;;;;;15.61;86.54;97036.69;5033930;28;20055;-64
2021/07/22 03:02:26;;;;;;;16.38;9.57;;;;;;;15.64;86.45;97043.38;5032787;28;20845;-64
2021/07/22 03:04:51;;;;;;;17.48;9.95;;;;;;;15.47;84.75;97042.94;5034722;28;20106;-64
2021/07/22 03:07:17;;;;;;;19.55;10.40;;;;;;;15.39;84.64;97046.06;5034227;28;20059;-64
2021/07/22 03:09:42;;;;;;;15.90;8.93;;;;;;;15.36;86.00;97050.41;5042526;28;20048;-64
2021/07/22 03:12:08;;;;;;;20.05;9.88;;;;;;;15.36;87.11;97046.84;5026931;28;20045;-65
2021/07/22 03:14:33;;;;;;;24.25;12.02;;;;;;;15.12;88.27;97043.63;5048208;28;20041;-63
2021/07/22 03:16:58;;;;;;;18.60;10.18;;;;;;;14.98;89.03;97049.88;5026189;28;20048;-63
2021/07/22 03:19:24;;;;;;;21.08;11.55;;;;;;;14.84;89.10;97042.31;5025017;28;20567;-62
2021/07/22 03:21:49;;;;;;;18.38;9.98;;;;;;;14.77;90.00;97058.03;5024116;28;20053;-63
2021/07/22 03:24:15;;;;;;;22.30;11.73;;;;;;;14.52;91.78;97059.44;5020513;28;20107;-62
2021/07/22 03:26:40;;;;;;;20.75;10.93;;;;;;;14.44;92.37;97062.50;5029908;28;20132;-64
2021/07/22 03:29:06;;;;;;;20.63;11.50;;;;;;;14.42;92.59;97060.16;5023242;28;20540;-64
2021/07/22 03:31:31;;;;;;;17.90;10.40;;;;;;;14.39;92.85;97063.69;5024502;28;20041;-64
2021/07/22 03:33:56;;;;;;;18.55;10.20;;;;;;;14.45;93.23;97061.34;5030753;28;20056;-64
2021/07/22 03:36:22;;;;;;;23.02;10.30;;;;;;;14.52;92.63;97064.16;5033761;28;20247;-63
2021/07/22 03:38:47;;;;;;;16.75;9.65;;;;;;;14.71;92.55;97061.16;5029954;28;20072;-65
2021/07/22 03:41:17;;;;;;;18.13;10.32;;;;;;;14.81;91.14;97062.38;5016153;28;20048;-64
2021/07/22 03:43:43;;;;;;;18.40;10.32;;;;;;;14.93;90.43;97061.28;5022283;28;20051;-63
2021/07/22 03:46:08;;;;;;;18.67;10.18;;;;;;;15.01;90.04;97054.59;5027079;28;20131;-64
2021/07/22 03:48:34;;;;;;;19.70;10.20;;;;;;;15.02;90.00;97061.72;5032001;28;20098;-63
2021/07/22 03:50:59;;;;;;;23.73;11.35;;;;;;;14.98;89.43;97060.09;5038880;28;20537;-64
2021/07/22 03:53:25;;;;;;;23.08;11.23;;;;;;;15.03;89.84;97056.97;5028638;28;20461;-62
2021/07/22 03:55:50;;;;;;;23.63;11.55;;;;;;;15.12;89.65;97056.63;5033110;28;20135;-63
2021/07/22 03:58:16;;;;;;;19.33;10.00;;;;;;;15.09;89.69;97059.00;5029699;28;20456;-64
2021/07/22 04:00:41;;;;;;;19.85;11.13;;;;;;;15.15;89.26;97064.91;5040921;28;20083;-63
2021/07/22 04:03:07;;;;;;;18.27;10.88;;;;;;;15.24;88.70;97065.34;5036036;28;20040;-64
2021/07/22 04:05:32;;;;;;;21.23;12.23;;;;;;;15.14;88.08;97059.78;5040939;28;20044;-63
2021/07/22 04:07:58;;;;;;;26.75;10.73;;;;;;;14.97;87.66;97061.28;5043699;28;20120;-64
2021/07/22 04:10:28;;;;;;;19.35;10.75;;;;;;;14.73;88.66;97060.78;5049257;28;20778;-64
2021/07/22 04:13:01;;;;;;;19.05;8.48;;;;;;;14.65;90.50;97072.94;5042587;28;20048;-62
2021/07/22 04:15:27;;;;;;;20.08;12.10;;;;;;;14.76;90.51;97067.47;5026109;28;20115;-64
2021/07/22 04:17:54;;;;;;;20.13;10.98;;;;;;;14.82;89.48;97069.50;5021713;28;20555;-63
2021/07/22 04:20:21;;;;;;;19.63;10.30;;;;;;;15.12;90.74;97067.66;5013580;28;20136;-61
2021/07/22 04:22:47;;;;;;;17.73;10.25;;;;;;;15.17;88.55;97070.84;5024842;28;20120;-63
2021/07/22 04:25:13;;;;;;;18.73;10.82;;;;;;;15.25;88.29;97068.88;5019872;28;20052;-64
2021/07/22 04:27:39;;;;;;;20.35;11.13;;;;;;;15.48;88.85;97079.63;5024859;28;20524;-63
2021/07/22 04:30:05;;;;;;;18.95;10.10;;;;;;;15.81;87.08;97084.09;5023082;28;20525;-65
2021/07/22 04:32:30;;;;;;;19.15;11.35;;;;;;;15.91;85.46;97085.28;5020901;28;20037;-63
2021/07/22 04:34:56;;;;;;;18.85;10.35;;;;;;;15.94;85.17;97075.44;5020767;28;20042;-62
2021/07/22 04:37:21;;;;;;;22.55;11.07;;;;;;;15.91;85.64;97085.28;5015014;28;20547;-64
2021/07/22 04:39:47;;;;;;;18.92;11.15;;;;;;;15.93;84.79;97082.91;5028214;28;20187;-64
2021/07/22 04:42:12;;;;;;;23.58;11.93;;;;;;;15.80;86.33;97084.47;5014535;28;20041;-65
2021/07/22 04:44:38;;;;;;;18.80;11.23;;;;;;;15.74;86.52;97092.34;5021460;28;20458;-64
2021/07/22 04:47:04;;;;;;;19.35;11.38;;;;;;;15.65;86.95;97089.16;5016158;28;20037;-65
2021/07/22 04:49:29;;;;;;;22.98;11.52;;;;;;;15.89;86.84;97092.38;5029991;28;20040;-64
2021/07/22 04:51:58;;;;;;;19.65;10.73;;;;;;;16.10;85.19;97091.59;5035284;28;20072;-64
2021/07/22 04:54:23;;;;;;;22.98;11.70;;;;;;;16.37;84.46;97089.25;5021417;28;20111;-64
2021/07/22 04:56:49;;;;;;;20.13;11.27;;;;;;;16.77;82.22;97095.53;5021540;28;20460;-64
2021/07/22 04:59:14;;;;;;;17.55;9.50;;;;;;;17.13;80.38;97093.50;5024593;28;20068;-64
2021/07/22 05:01:40;;;;;;;23.83;11.73;;;;;;;17.41;78.40;97091.78;5032738;28;20049;-64
2021/07/22 05:04:06;;;;;;;19.48;11.00;;;;;;;17.65;78.03;97084.56;5029074;28;20091;-64
2021/07/22 05:06:33;;;;;;;16.90;10.15;;;;;;;18.00;76.85;97088.31;5025110;28;20045;-64
2021/07/22 05:08:59;;;;;;;16.95;10.10;;;;;;;18.83;73.22;97077.34;5031831;28;20041;-64
2021/07/22 05:11:25;;;;;;;18.33;9.77;;;;;;;20.09;67.74;97077.78;5034966;28;20162;-64
2021/07/22 05:13:51;;;;;;;20.38;10.25;;;;;;;21.33;62.73;97084.38;5027288;28;20044;-64
2021/07/22 05:16:16;;;;;;;15.20;8.65;;;;;;;21.92;60.64;97082.75;5018333;28;20056;-63
2021/07/22 05:18:41;;;;;;;20.88;10.43;;;;;;;23.06;56.64;97078.38;5019766;28;20064;-63
2021/07/22 05:21:07;;;;;;;19.33;9.82;;;;;;;24.23;51.73;97072.56;5012765;28;20069;-62
2021/07/22 05:23:33;;;;;;;23.48;10.98;;;;;;;25.24;49.86;97069.97;5024358;28;20052;-63
2021/07/22 05:26:05;;;;;;;22.00;10.80;;;;;;;24.68;50.20;97071.50;5020230;28;20057;-64
2021/07/22 05:28:31;;;;;;;16.15;9.98;;;;;;;25.19;48.85;97078.94;5021156;28;20049;-63
2021/07/22 05:30:56;;;;;;;16.33;9.40;;;;;;;25.84;47.12;97076.56;5025968;28;20491;-63
2021/07/22 05:33:21;;;;;;;15.13;8.35;;;;;;;26.51;45.00;97077.94;5022642;28;20724;-64
2021/07/22 05:35:47;;;;;;;17.48;9.45;;;;;;;26.95;44.04;97077.72;5018708;28;20049;-63
2021/07/22 05:38:49;;;;;;;17.88;9.00;;;;;;;26.92;43.81;97086.28;5016487;28;20509;-64
2021/07/22 05:41:15;;;;;;;16.55;9.52;;;;;;;27.41;43.00;97082.59;5015642;28;20045;-64
2021/07/22 05:43:40;;;;;;;26.75;8.88;;;;;;;27.17;41.87;97085.22;5027379;28;20044;-64
2021/07/22 05:46:06;;;;;;;19.65;9.95;;;;;;;26.82;42.63;97083.47;5029392;28;20769;-65
2021/07/22 05:48:31;;;;;;;16.77;11.10;;;;;;;26.22;45.24;97086.75;5023630;28;20115;-63
2021/07/22 05:51:01;;;;;;;15.98;8.73;;;;;;;25.84;47.39;97084.97;5021420;28;20034;-65
2021/07/22 05:53:26;;;;;;;12.80;7.97;;;;;;;27.71;41.68;97080.00;5020378;28;20041;-63
2021/07/22 05:55:55;;;;;;;19.33;9.27;;;;;;;27.68;41.76;97087.38;5029494;28;20045;-63
2021/07/22 05:58:20;;;;;;;14.07;8.30;;;;;;;28.48;39.61;97085.22;5021031;28;20048;-64
2021/07/22 06:00:45;;;;;;;14.13;8.40;;;;;;;29.32;36.97;97083.41;5034161;28;20501;-63
2021/07/22 06:03:11;;;;;;;14.07;8.18;;;;;;;29.80;36.28;97088.16;5027556;28;20128;-63
2021/07/22 06:05:37;;;;;;;16.17;8.70;;;;;;;29.67;37.48;97090.44;5023551;28;20076;-64
2021/07/22 06:08:04;;;;;;;14.75;8.20;;;;;;;30.49;35.70;97091.56;5024963;28;20133;-65
2021/07/22 06:10:29;;;;;;;20.27;9.80;;;;;;;29.74;36.42;97098.53;5034036;28;20059;-64
2021/07/22 06:12:55;;;;;;;15.35;9.00;;;;;;;28.79;38.30;97095.38;5043188;28;20428;-63
2021/07/22 06:15:21;;;;;;;14.35;8.45;;;;;;;30.00;36.20;97100.78;5018391;28;20045;-64
2021/07/22 06:17:47;;;;;;;18.48;9.48;;;;;;;29.08;36.86;97099.56;5026028;28;20531;-64
2021/07/22 06:20:12;;;;;;;11.95;8.20;;;;;;;29.96;35.36;97100.97;5023696;28;20132;-64
2021/07/22 06:22:38;;;;;;;13.98;8.77;;;;;;;30.68;34.73;97094.94;5030925;28;20048;-65
2021/07/22 06:25:05;;;;;;;15.35;9.15;;;;;;;30.67;34.51;97099.03;5028672;28;20040;-65
2021/07/22 06:27:30;;;;;;;12.70;7.72;;;;;;;31.82;33.19;97094.22;5048912;28;20494;-64
2021/07/22 06:30:00;;;;;;;12.32;8.25;;;;;;;31.95;32.57;97093.81;5035130;28;20119;-64
2021/07/22 06:32:26;;;;;;;14.98;8.80;;;;;;;32.19;31.78;97094.28;5024907;28;20443;-64
2021/07/22 06:34:51;;;;;;;14.25;8.10;;;;;;;32.42;31.93;97090.84;5028432;28;20131;-65
2021/07/22 06:37:16;;;;;;;14.07;8.77;;;;;;;30.65;35.03;97090.25;5026047;28;20401;-64
2021/07/22 06:39:42;;;;;;;12.98;8.70;;;;;;;29.10;37.71;97088.56;5042520;28;20107;-64
2021/07/22 06:42:07;;;;;;;13.15;8.10;;;;;;;30.90;34.94;97095.69;5034257;28;20181;-65
2021/07/22 06:44:33;;;;;;;15.38;8.35;;;;;;;32.06;33.69;97095.97;5024531;28;20045;-64
2021/07/22 06:47:00;;;;;;;12.82;8.00;;;;;;;32.78;31.53;97094.94;5042956;28;20476;-65
2021/07/22 06:49:25;;;;;;;17.02;9.50;;;;;;;31.12;33.42;97090.38;5017218;28;20060;-63
2021/07/22 06:51:53;;;;;;;17.20;9.57;;;;;;;26.89;41.82;97093.66;5030319;28;20068;-64
2021/07/22 06:54:20;;;;;;;12.48;7.90;;;;;;;28.28;39.54;97088.59;5025480;28;20558;-64
2021/07/22 06:56:45;;;;;;;15.98;8.40;;;;;;;30.42;36.42;97086.34;5030148;28;20038;-64
2021/07/22 06:59:11;;;;;;;13.52;8.60;;;;;;;30.14;36.78;97085.88;5033588;22;20052;-67
2021/07/22 07:01:36;;;;;;;17.00;8.45;;;;;;;31.39;33.96;97080.63;5007448;28;20556;-66
2021/07/22 07:04:03;;;;;;;14.88;8.38;;;;;;;32.48;32.41;97078.22;5019192;28;20405;-67
2021/07/22 07:06:30;;;;;;;14.52;8.50;;;;;;;33.29;31.24;97078.91;4990478;28;20050;-66
2021/07/22 07:08:55;;;;;;;18.90;8.75;;;;;;;33.50;30.72;97075.88;5015246;28;20050;-66
2021/07/22 07:11:21;;;;;;;14.90;9.00;;;;;;;33.02;31.07;97083.19;5010007;28;20043;-66
2021/07/22 07:13:46;;;;;;;14.57;9.45;;;;;;;31.91;32.63;97084.75;5009009;28;20076;-68
2021/07/22 07:16:11;;;;;;;14.02;9.15;;;;;;;31.00;35.30;97080.97;5003768;28;20053;-67
2021/07/22 07:18:37;;;;;;;16.02;8.85;;;;;;;31.34;34.67;97080.56;5009760;28;20046;-68
2021/07/22 07:21:04;;;;;;;17.27;9.90;;;;;;;31.48;33.53;97074.06;5011747;28;20046;-67
2021/07/22 07:23:31;;;;;;;11.82;8.00;;;;;;;31.92;34.07;97072.91;4987469;28;20055;-67
2021/07/22 07:25:57;;;;;;;17.15;10.43;;;;;;;28.29;41.67;97076.09;5022779;28;20128;-68
2021/07/22 07:28:22;;;;;;;13.45;8.10;;;;;;;31.38;35.22;97073.41;4996050;28;20073;-68
2021/07/22 07:30:47;;;;;;;13.88;9.82;;;;;;;27.65;41.84;97077.84;5004987;28;20052;-68
2021/07/22 07:33:13;;;;;;;15.40;10.35;;;;;;;28.14;40.54;97070.34;5006180;28;20055;-68
2021/07/22 07:35:39;;;;;;;17.10;9.93;;;;;;;26.00;45.15;97079.19;5013853;28;20071;-68
2021/07/22 07:38:05;;;;;;;14.80;9.23;;;;;;;27.44;42.81;97079.63;5009347;28;20092;-67
2021/07/22 07:40:30;;;;;;;13.75;9.18;;;;;;;26.23;45.27;97077.84;5007734;28;20041;-67
2021/07/22 07:42:56;;;;;;;19.02;10.25;;;;;;;26.95;44.14;97079.75;5008020;28;20060;-68
2021/07/22 07:45:21;;;;;;;19.33;9.82;;;;;;;28.68;39.86;97067.75;4976210;28;20556;-66
2021/07/22 07:47:47;;;;;;;18.52;10.07;;;;;;;28.84;38.93;97066.53;5005255;28;20516;-66
2021/07/22 07:50:12;;;;;;;17.83;8.75;;;;;;;29.45;38.71;97069.03;4995907;28;20102;-66
2021/07/22 07:52:39;;;;;;;16.63;9.88;;;;;;;29.55;38.65;97066.91;5006631;28;20050;-67
2021/07/22 07:55:07;;;;;;;19.83;10.70;;;;;;;26.34;45.73;97077.41;4987341;28;20560;-66
2021/07/22 07:57:32;;;;;;;15.52;9.15;;;;;;;28.26;41.55;97070.63;4986035;28;20443;-66
2021/07/22 07:59:58;;;;;;;18.80;10.95;;;;;;;28.32;41.17;97068.72;5005262;28;20052;-66
2021/07/22 08:02:23;;;;;;;16.67;9.80;;;;;;;27.69;42.96;97072.03;5015474;28;20554;-65
2021/07/22 08:04:49;;;;;;;20.98;9.77;;;;;;;26.63;45.43;97071.44;5017489;28;20041;-66
2021/07/22 08:07:14;;;;;;;15.93;9.98;;;;;;;28.10;42.07;97064.13;5012653;28;20111;-68
2021/07/22 08:09:40;;;;;;;21.85;10.23;;;;;;;29.87;38.66;97065.19;5000911;28;20062;-68
2021/07/22 08:12:05;;;;;;;20.13;11.98;;;;;;;31.11;35.46;97068.22;5001353;28;20041;-68
2021/07/22 08:14:36;;;;;;;17.30;10.88;;;;;;;30.75;36.22;97064.69;5000605;28;20136;-68
2021/07/22 08:17:06;;;;;;;14.35;9.52;;;;;;;30.42;37.00;97069.38;4978497;28;20041;-68
2021/07/22 08:19:31;;;;;;;;;;;;;;;30.91;36.11;97066.94;4991611;28;20048;-68
2021/07/22 08:21:57;;;;;;;15.07;9.18;;;;;;;31.35;35.28;97065.94;5019103;28;19917;-67
2021/07/22 08:24:22;;;;;;;17.52;9.05;;;;;;;31.46;35.32;97062.44;5000492;28;20064;-67
2021/07/22 08:26:48;;;;;;;15.73;9.88;;;;;;;31.34;35.68;97064.38;4999634;28;20135;-66
2021/07/22 08:29:13;;;;;;;15.00;9.55;;;;;;;30.50;37.34;97061.25;5004689;28;20079;-67
2021/07/22 08:31:39;;;;;;;17.23;9.73;;;;;;;29.37;39.98;97062.22;5019045;28;20350;-68
2021/07/22 08:34:05;;;;;;;20.50;10.75;;;;;;;28.26;41.95;97062.19;5012403;28;20045;-66
2021/07/22 08:36:30;;;;;;;16.65;9.63;;;;;;;28.41;42.25;97063.03;5008907;28;20034;-68
2021/07/22 08:38:55;;;;;;;15.73;10.25;;;;;;;27.69;42.85;97057.19;5009072;28;20079;-68
2021/07/22 08:41:21;;;;;;;16.95;10.77;;;;;;;26.27;49.04;97067.28;5013311;28;20045;-69
2021/07/22 08:43:50;;;;;;;18.20;10.48;;;;;;;27.83;46.23;97054.50;5010531;28;20044;-67
2021/07/22 08:46:15;;;;;;;19.85;10.90;;;;;;;28.75;43.98;97052.50;4993983;28;20383;-67
2021/07/22 08:48:43;;;;;;;19.75;10.68;;;;;;;29.49;42.48;97057.56;5005366;28;20042;-67
2021/07/22 08:51:09;;;;;;;16.83;10.60;;;;;;;29.13;42.39;97054.56;5004297;28;20441;-67
2021/07/22 08:53:35;;;;;;;23.05;11.32;;;;;;;29.14;42.81;97052.53;5019184;28;20072;-67
2021/07/22 08:56:02;;;;;;;16.77;10.90;;;;;;;29.06;43.08;97046.47;5015396;28;20064;-67
2021/07/22 08:58:28;;;;;;;18.00;9.98;;;;;;;28.43;44.10;97052.06;5009532;28;20042;-67
2021/07/22 09:00:55;;;;;;;20.27;10.38;;;;;;;28.35;45.37;97056.50;4997547;28;20042;-67
2021/07/22 09:03:21;;;;;;;16.83;10.05;;;;;;;28.31;46.04;97053.84;4987535;28;20061;-67
2021/07/22 09:05:46;;;;;;;15.00;9.57;;;;;;;29.05;44.22;97046.97;5019350;28;20045;-67
2021/07/22 09:08:13;;;;;;;22.08;10.88;;;;;;;28.70;44.47;97051.16;4985505;28;20052;-66
2021/07/22 09:10:39;;;;;;;17.98;10.07;;;;;;;28.57;45.02;97056.22;5007649;28;20776;-67
2021/07/22 09:13:04;;;;;;;15.23;10.07;;;;;;;28.41;45.67;97046.13;5004241;28;20046;-66
2021/07/22 09:15:33;;;;;;;15.55;9.50;;;;;;;28.94;44.55;97048.31;5003306;28;20050;-66
2021/07/22 09:17:58;;;;;;;24.00;11.40;;;;;;;28.94;43.79;97044.72;5003390;28;20081;-67
2021/07/22 09:20:31;;;;;;;17.85;9.60;;;;;;;28.52;44.68;97052.03;4999397;28;20324;-66
2021/07/22 09:22:58;;;;;;;20.48;10.48;;;;;;;28.73;44.95;97046.59;5001080;28;20060;-66
2021/07/22 09:25:56;;;;;;;17.63;10.13;;;;;;;28.86;45.08;97043.50;4995898;28;21210;-67
2021/07/22 09:28:24;;;;;;;21.40;10.05;;;;;;;28.98;44.32;97050.94;4948466;28;22172;-66
2021/07/22 09:31:00;;;;;;;16.45;10.60;;;;;;;29.21;44.37;97049.38;5002541;28;20562;-66
2021/07/22 09:33:32;;;;;;;20.98;11.60;;;;;;;28.70;45.00;97050.34;4994839;28;20049;-66
2021/07/22 09:35:57;;;;;;;20.60;10.40;;;;;;;28.74;45.35;97037.66;5001309;28;20038;-66
2021/07/22 09:38:25;;;;;;;22.73;10.75;;;;;;;28.77;44.71;97033.88;4990443;28;20107;-66
2021/07/22 09:40:51;;;;;;;18.17;10.80;;;;;;;29.03;44.17;97035.38;5003834;28;20072;-66
2021/07/22 09:43:36;;;;;;;15.57;9.25;;;;;;;29.61;43.14;97041.59;4997279;28;20042;-67
2021/07/22 09:46:02;;;;;;;15.50;9.23;;;;;;;30.08;41.80;97042.66;5004432;28;20041;-67
2021/07/22 09:48:29;;;;;;;17.23;10.07;;;;;;;30.43;41.65;97041.88;4968627;28;20486;-67
2021/07/22 09:50:55;;;;;;;19.98;11.85;;;;;;;30.55;41.06;97035.13;5004140;28;20144;-67
2021/07/22 09:53:22;;;;;;;18.05;11.07;;;;;;;29.23;43.09;97046.06;4991309;28;20129;-67
2021/07/22 09:55:53;;;;;;;22.52;10.30;;;;;;;29.82;42.18;97040.47;5009707;28;20372;-67
2021/07/22 09:58:20;;;;;;;18.90;10.43;;;;;;;30.16;42.57;97031.72;4998032;28;20116;-67
2021/07/22 10:00:50;;;;;;;19.50;10.80;;;;;;;29.76;42.78;97030.34;4998555;28;20034;-66
2021/07/22 10:03:19;;;;;;;19.25;10.77;;;;;;;29.54;43.51;97026.59;4971478;28;20410;-68
2021/07/22 10:05:53;;;;;;;20.60;10.27;;;;;;;29.82;43.45;97029.16;5000623;28;20052;-66
2021/07/22 10:08:20;;;;;;;15.43;9.70;;;;;;;29.83;42.98;97029.94;5003930;28;20149;-66
2021/07/22 10:10:53;;;;;;;15.77;9.88;;;;;;;30.31;42.94;97024.00;5000826;28;20072;-67
2021/07/22 10:13:27;;;;;;;23.45;10.90;;;;;;;29.50;44.20;97026.03;5002847;28;20067;-67
2021/07/22 10:15:56;;;;;;;17.70;11.23;;;;;;;29.55;43.99;97013.28;5018207;28;20246;-67
2021/07/22 10:18:24;;;;;;;20.17;10.95;;;;;;;29.15;45.03;97012.59;5020058;28;20124;-67
2021/07/22 10:20:53;;;;;;;17.92;10.23;;;;;;;28.75;45.41;97013.81;5022150;28;20100;-67
2021/07/22 10:23:20;;;;;;;17.55;11.18;;;;;;;28.74;45.48;97006.66;5010344;28;20184;-68
2021/07/22 10:25:49;;;;;;;20.52;11.73;;;;;;;28.62;45.95;97006.91;5007497;28;20049;-67
2021/07/22 10:28:15;;;;;;;;;;;;;;;29.21;45.62;97004.25;4995802;28;20433;-67
2021/07/22 10:30:41;;;;;;;17.05;9.82;;;;;;;29.96;43.18;97004.97;5008404;28;19920;-67
2021/07/22 10:33:07;;;;;;;19.70;9.82;;;;;;;30.54;42.29;97007.34;5006569;28;20041;-67
2021/07/22 10:35:34;;;;;;;18.67;10.57;;;;;;;29.87;43.25;97002.28;4999060;28;20394;-66
2021/07/22 10:38:14;;;;;;;20.02;10.63;;;;;;;29.43;44.50;97000.25;5000419;28;20517;-66
2021/07/22 10:40:49;;;;;;;21.45;11.50;;;;;;;28.68;46.73;96997.28;4983366;28;20049;-66
2021/07/22 10:43:30;;;;;;;17.40;9.98;;;;;;;29.08;45.86;96996.03;5000539;28;20041;-67
2021/07/22 10:45:56;;;;;;;24.75;12.10;;;;;;;28.88;47.09;96990.25;4997473;28;20042;-66
2021/07/22 10:48:26;;;;;;;18.55;11.60;;;;;;;28.21;47.27;96993.97;5004084;28;20498;-66
2021/07/22 10:50:54;;;;;;;21.27;11.45;;;;;;;28.10;48.20;96998.59;5006836;28;20128;-67
2021/07/22 10:53:53;;;;;;;24.88;10.60;;;;;;;28.14;48.03;96980.25;4997814;28;20461;-66
2021/07/22 10:56:25;;;;;;;18.17;11.10;;;;;;;28.42;47.88;96982.91;4953349;28;20042;-67
2021/07/22 10:58:57;;;;;;;17.30;10.50;;;;;;;28.46;47.58;96989.13;5001690;28;20045;-67
2021/07/22 11:01:41;;;;;;;20.38;12.07;;;;;;;28.05;48.80;96979.53;4993462;28;20909;-67
2021/07/22 11:04:07;;;;;;;20.63;11.40;;;;;;;27.87;48.29;96986.78;5000460;28;20049;-67
2021/07/22 11:06:58;;;;;;;18.63;11.15;;;;;;;27.39;50.66;96981.81;5009277;28;20057;-66
2021/07/22 11:09:58;;;;;;;22.00;11.35;;;;;;;27.15;51.35;96981.66;5010863;28;20735;-68
2021/07/22 11:12:32;;;;;;;19.85;12.05;;;;;;;27.54;50.63;96975.50;4951256;28;20053;-66
2021/07/22 11:15:00;;;;;;;19.92;11.70;;;;;;;27.50;49.97;96978.50;4990879;28;20041;-66
2021/07/22 11:17:33;;;;;;;22.05;11.65;;;;;;;27.29;50.41;96973.88;5003182;28;20052;-68
2021/07/22 11:20:17;;;;;;;19.58;11.77;;;;;;;27.27;50.48;96972.28;5020124;28;20134;-66
2021/07/22 11:22:44;;;;;;;17.35;11.32;;;;;;;26.97;52.15;96974.03;5007978;28;20514;-66